Time;durP1;ratioP1;P1;durP2;ratioP2;P2;SDS_P1;SDS_P2;PMS_P1;PMS_P2;Temp;Humidity;BMP_temperature;BMP_pressure;BME280_temperature;BME280_humidity;BME280_pressure;Samples;Min_cycle;Max_cycle;Signal;HPM_P1;HPM_P2
2023/12/05 00:00:27;;;;;;;21.10;10.97;;;2.80;86.60;;;;;;5061007;28;20217;-72
2023/12/05 00:02:53;;;;;;;18.37;9.00;;;2.80;86.60;;;;;;5049159;28;20685;-71
2023/12/05 00:05:19;;;;;;;17.53;8.30;;;2.80;86.60;;;;;;5042549;28;20188;-71
2023/12/05 00:07:44;;;;;;;19.00;9.50;;;3.00;86.60;;;;;;5047876;28;20188;-70
2023/12/05 00:10:10;;;;;;;19.27;9.83;;;3.00;86.30;;;;;;5049162;28;20223;-71
2023/12/05 00:12:35;;;;;;;18.60;9.90;;;3.00;86.20;;;;;;5049981;28;20661;-72
2023/12/05 00:15:01;;;;;;;16.77;8.10;;;3.00;86.20;;;;;;5042384;28;20295;-72
2023/12/05 00:17:27;;;;;;;16.50;8.07;;;3.00;86.00;;;;;;5048234;28;20189;-73
2023/12/05 00:19:52;;;;;;;12.03;7.40;;;3.20;86.00;;;;;;5043012;28;20949;-72
2023/12/05 00:22:18;;;;;;;16.37;8.30;;;3.20;85.70;;;;;;5049762;28;20894;-73
2023/12/05 00:24:43;;;;;;;12.73;6.70;;;3.20;85.50;;;;;;5055410;28;20200;-72
2023/12/05 00:27:09;;;;;;;16.93;8.27;;;3.20;85.50;;;;;;5049263;28;20507;-71
2023/12/05 00:29:36;;;;;;;13.60;7.80;;;3.20;85.60;;;;;;5045682;28;20211;-73
2023/12/05 00:32:02;;;;;;;14.25;6.88;;;3.20;85.70;;;;;;5046376;28;20189;-73
2023/12/05 00:34:28;;;;;;;15.07;7.63;;;3.20;85.70;;;;;;5041870;28;20188;-72
2023/12/05 00:36:53;;;;;;;15.97;7.23;;;3.20;85.90;;;;;;5042879;28;20185;-72
2023/12/05 00:39:19;;;;;;;13.57;7.30;;;3.20;86.00;;;;;;5048933;28;20594;-71
2023/12/05 00:41:46;;;;;;;14.40;7.70;;;3.20;86.20;;;;;;5038899;28;20220;-72
2023/12/05 00:44:12;;;;;;;14.80;8.20;;;3.20;86.20;;;;;;5045485;28;20203;-71
2023/12/05 00:46:38;;;;;;;11.77;7.30;;;3.20;86.30;;;;;;5038221;28;20800;-72
2023/12/05 00:49:03;;;;;;;14.53;7.30;;;3.30;86.20;;;;;;5042378;28;21395;-72
2023/12/05 00:51:29;;;;;;;9.83;5.83;;;3.30;86.20;;;;;;5040063;28;20212;-72
2023/12/05 00:53:55;;;;;;;8.27;4.27;;;3.40;86.30;;;;;;5044500;28;20239;-70
2023/12/05 00:56:20;;;;;;;8.10;4.73;;;3.70;86.80;;;;;;5039629;28;20227;-70
2023/12/05 00:58:46;;;;;;;11.80;7.43;;;3.90;86.60;;;;;;5043082;28;20554;-71
2023/12/05 01:01:12;;;;;;;11.13;6.10;;;3.80;86.30;;;;;;5042778;28;20212;-70
2023/12/05 01:03:37;;;;;;;12.43;5.93;;;3.80;85.90;;;;;;5043186;28;20947;-71
2023/12/05 01:06:03;;;;;;;9.40;5.97;;;3.80;85.70;;;;;;5041898;28;20189;-72
2023/12/05 01:08:29;;;;;;;10.60;6.20;;;3.70;85.50;;;;;;5042832;28;20207;-71
2023/12/05 01:10:54;;;;;;;8.43;5.43;;;3.70;85.30;;;;;;5045839;28;20498;-71
2023/12/05 01:13:20;;;;;;;9.90;5.47;;;3.70;85.50;;;;;;5048689;28;20239;-72
2023/12/05 01:15:46;;;;;;;13.63;5.93;;;3.70;85.60;;;;;;5047996;28;20234;-71
2023/12/05 01:18:11;;;;;;;9.67;4.90;;;3.70;85.90;;;;;;5044581;28;20612;-71
2023/12/05 01:20:37;;;;;;;7.60;4.40;;;3.70;86.00;;;;;;5035383;28;20217;-71
2023/12/05 01:23:02;;;;;;;8.23;4.13;;;3.70;86.30;;;;;;5043573;28;20559;-70
2023/12/05 01:25:28;;;;;;;5.20;3.50;;;3.70;86.50;;;;;;5040866;28;20184;-72
2023/12/05 01:27:54;;;;;;;7.60;4.00;;;3.80;86.50;;;;;;5040658;28;20272;-72
2023/12/05 01:30:20;;;;;;;4.87;3.07;;;3.90;86.30;;;;;;5036900;28;20299;-72
2023/12/05 01:32:45;;;;;;;7.83;3.00;;;3.90;86.20;;;;;;5041104;28;20519;-71
2023/12/05 01:35:11;;;;;;;5.83;3.23;;;4.00;86.20;;;;;;5042014;28;20176;-71
2023/12/05 01:37:38;;;;;;;5.00;3.07;;;4.10;86.20;;;;;;5039193;28;20243;-71
2023/12/05 01:40:05;;;;;;;4.83;3.33;;;4.20;86.00;;;;;;5043135;28;20251;-71
2023/12/05 01:42:37;;;;;;;3.83;2.63;;;4.20;85.70;;;;;;5049051;28;20423;-72
2023/12/05 01:45:04;;;;;;;4.13;2.73;;;4.30;85.60;;;;;;5041470;28;20419;-73
2023/12/05 01:47:30;;;;;;;5.00;3.20;;;4.30;85.50;;;;;;5040622;28;20412;-72
2023/12/05 01:49:56;;;;;;;6.00;3.73;;;4.30;85.50;;;;;;5041249;28;21236;-72
2023/12/05 01:52:22;;;;;;;5.10;3.57;;;4.30;85.50;;;;;;5040083;28;20217;-72
2023/12/05 01:54:48;;;;;;;5.30;3.10;;;4.30;85.30;;;;;;5045087;28;20190;-72
2023/12/05 01:57:15;;;;;;;4.50;3.03;;;4.30;85.30;;;;;;5041278;28;20793;-72
2023/12/05 01:59:40;;;;;;;4.50;3.13;;;4.30;85.30;;;;;;5042736;28;20287;-72
2023/12/05 02:02:06;;;;;;;4.40;3.03;;;4.40;85.30;;;;;;5043200;28;20582;-73
2023/12/05 02:04:33;;;;;;;5.60;2.90;;;4.40;85.00;;;;;;5050068;28;20184;-72
2023/12/05 02:07:00;;;;;;;5.47;3.90;;;4.50;84.90;;;;;;5041768;28;20451;-72
2023/12/05 02:09:25;;;;;;;8.73;4.33;;;4.50;84.90;;;;;;5048014;28;20477;-72
2023/12/05 02:11:51;;;;;;;5.27;3.07;;;4.40;85.00;;;;;;5037140;28;20416;-72
2023/12/05 02:14:16;;;;;;;3.80;2.97;;;4.40;85.20;;;;;;5043171;28;20616;-72
2023/12/05 02:17:19;;;;;;;10.73;4.10;;;4.40;85.30;;;;;;5034252;28;20177;-72
2023/12/05 02:20:00;;;;;;;7.17;3.33;;;4.40;85.20;;;;;;5054220;28;20231;-72
2023/12/05 02:22:50;;;;;;;5.77;3.50;;;4.30;85.20;;;;;;5043094;28;20427;-73
2023/12/05 02:25:30;;;;;;;7.50;4.10;;;4.20;85.30;;;;;;5038453;28;20438;-72
2023/12/05 02:27:58;;;;;;;4.57;3.40;;;4.10;85.30;;;;;;5043146;28;20427;-72
2023/12/05 02:30:25;;;;;;;8.10;4.00;;;4.00;85.60;;;;;;5033861;28;21217;-72
2023/12/05 02:32:51;;;;;;;6.20;3.80;;;4.00;85.70;;;;;;5043262;28;20771;-73
2023/12/05 02:35:17;;;;;;;8.17;3.57;;;4.00;85.90;;;;;;5036315;28;20415;-73
2023/12/05 02:37:57;;;;;;;6.40;4.00;;;4.00;85.90;;;;;;5045382;28;20212;-72
2023/12/05 02:40:59;;;;;;;5.33;3.83;;;4.00;85.90;;;;;;5044542;28;20480;-70
2023/12/05 02:43:32;;;;;;;9.77;4.37;;;3.90;86.20;;;;;;5044794;28;20423;-71
2023/12/05 02:45:58;;;;;;;6.63;3.93;;;3.90;86.30;;;;;;5044448;28;20928;-71
2023/12/05 02:48:25;;;;;;;5.80;3.63;;;3.90;86.50;;;;;;5041145;28;20428;-72
2023/12/05 02:50:52;;;;;;;8.50;4.10;;;3.90;86.30;;;;;;5042576;28;20466;-72
2023/12/05 02:53:18;;;;;;;6.87;4.10;;;3.90;86.30;;;;;;5041521;28;20420;-71
2023/12/05 02:55:44;;;;;;;6.57;3.70;;;3.90;86.30;;;;;;5043698;28;20428;-71
2023/12/05 02:58:10;;;;;;;5.77;3.50;;;3.90;86.50;;;;;;5039450;28;20181;-72
2023/12/05 03:00:35;;;;;;;9.03;4.07;;;3.90;86.50;;;;;;5045199;28;20462;-72
2023/12/05 03:03:01;;;;;;;8.60;4.20;;;3.90;86.50;;;;;;5044161;28;20186;-71
2023/12/05 03:05:26;;;;;;;5.17;3.30;;;3.90;86.50;;;;;;5041763;28;20194;-72
2023/12/05 03:07:52;;;;;;;6.07;3.87;;;3.90;86.50;;;;;;5035534;28;20295;-71
2023/12/05 03:10:17;;;;;;;6.40;4.40;;;3.90;86.50;;;;;;5061443;28;20212;-72
2023/12/05 03:12:43;;;;;;;5.83;3.57;;;4.00;86.30;;;;;;5034384;28;20181;-71
2023/12/05 03:15:09;;;;;;;7.10;3.67;;;4.00;86.20;;;;;;5043240;28;20181;-72
2023/12/05 03:17:34;;;;;;;7.60;4.33;;;4.00;86.20;;;;;;5034312;28;20182;-71
2023/12/05 03:20:00;;;;;;;9.57;4.60;;;3.90;86.20;;;;;;5043924;28;20521;-71
2023/12/05 03:22:25;;;;;;;12.67;4.10;;;4.00;86.20;;;;;;5041779;28;20741;-71
2023/12/05 03:24:51;;;;;;;7.03;3.33;;;4.00;86.20;;;;;;5042802;28;20657;-70
2023/12/05 03:27:17;;;;;;;6.80;3.53;;;4.10;86.00;;;;;;5040834;28;20247;-70
2023/12/05 03:29:42;;;;;;;6.17;3.37;;;4.10;85.90;;;;;;5043802;28;20704;-71
2023/12/05 03:32:08;;;;;;;5.80;3.67;;;4.10;85.90;;;;;;5041179;28;20188;-70
2023/12/05 03:34:33;;;;;;;6.13;3.70;;;4.20;85.90;;;;;;5043783;28;20185;-72
2023/12/05 03:36:59;;;;;;;8.00;4.30;;;4.20;85.70;;;;;;5037930;28;20185;-72
2023/12/05 03:39:24;;;;;;;6.80;3.80;;;4.20;85.70;;;;;;5038308;28;20205;-72
2023/12/05 03:41:50;;;;;;;6.93;3.53;;;4.30;85.70;;;;;;5046699;28;20208;-71
2023/12/05 03:44:16;;;;;;;8.63;4.43;;;4.30;85.60;;;;;;5043760;28;20260;-71
2023/12/05 03:46:41;;;;;;;6.23;3.40;;;4.30;85.60;;;;;;5045037;28;20184;-72
2023/12/05 03:49:07;;;;;;;7.80;4.27;;;4.30;85.50;;;;;;5041236;28;20184;-72
2023/12/05 03:51:32;;;;;;;7.57;4.17;;;4.30;85.30;;;;;;5042259;28;20281;-71
2023/12/05 03:53:58;;;;;;;7.17;4.40;;;4.30;85.50;;;;;;5043152;28;20257;-72
2023/12/05 03:56:24;;;;;;;7.00;3.30;;;4.30;85.60;;;;;;5054284;28;20263;-71
2023/12/05 03:58:51;;;;;;;10.70;5.00;;;4.30;85.70;;;;;;5043571;28;20208;-70
2023/12/05 04:01:16;;;;;;;10.03;4.87;;;4.30;85.60;;;;;;5056059;28;20212;-72
2023/12/05 04:03:42;;;;;;;7.27;4.07;;;4.30;85.60;;;;;;5048484;28;20427;-71
2023/12/05 04:06:08;;;;;;;6.40;4.20;;;4.30;85.70;;;;;;5051438;28;20710;-71
2023/12/05 04:08:34;;;;;;;6.70;4.20;;;4.30;85.60;;;;;;5046409;28;20209;-71
2023/12/05 04:10:59;;;;;;;7.50;3.97;;;4.30;85.70;;;;;;5049357;28;20478;-71
2023/12/05 04:13:25;;;;;;;6.53;4.17;;;4.30;85.70;;;;;;5040374;28;20268;-71
2023/12/05 04:15:50;;;;;;;6.53;3.80;;;4.20;85.70;;;;;;5046822;28;20187;-71
2023/12/05 04:18:16;;;;;;;5.93;3.80;;;4.20;85.70;;;;;;5041234;28;20281;-72
2023/12/05 04:20:41;;;;;;;7.73;4.00;;;4.20;85.90;;;;;;5048063;28;20221;-70
2023/12/05 04:23:07;;;;;;;7.23;3.50;;;4.20;85.90;;;;;;5048685;28;20187;-73
2023/12/05 04:25:32;;;;;;;8.23;3.80;;;4.20;85.90;;;;;;5048184;28;20220;-72
2023/12/05 04:27:58;;;;;;;9.53;4.30;;;4.10;85.90;;;;;;5044076;28;20535;-72
2023/12/05 04:30:24;;;;;;;5.90;3.97;;;4.10;85.90;;;;;;5046475;28;20212;-72
2023/12/05 04:32:50;;;;;;;7.40;3.93;;;4.20;85.90;;;;;;5037349;28;21016;-72
2023/12/05 04:35:15;;;;;;;5.90;3.50;;;4.20;85.90;;;;;;5047982;28;20181;-74
2023/12/05 04:37:41;;;;;;;9.90;4.10;;;4.20;85.90;;;;;;5053733;28;20184;-72
2023/12/05 04:40:08;;;;;;;8.37;3.90;;;4.10;85.90;;;;;;5047995;28;20208;-72
2023/12/05 04:42:34;;;;;;;8.30;4.17;;;4.00;85.70;;;;;;5045701;28;20568;-73
2023/12/05 04:44:59;;;;;;;8.77;5.10;;;3.80;85.50;;;;;;5048070;28;20942;-71
2023/12/05 04:47:25;;;;;;;6.10;4.13;;;3.80;86.20;;;;;;5037980;28;20984;-71
2023/12/05 04:49:51;;;;;;;9.10;3.93;;;3.80;86.50;;;;;;5043131;28;20239;-72
2023/12/05 04:52:16;;;;;;;7.47;3.73;;;3.80;86.80;;;;;;5044501;28;20478;-71
2023/12/05 04:54:42;;;;;;;7.30;3.63;;;4.00;86.90;;;;;;5039402;28;20196;-72
2023/12/05 04:57:08;;;;;;;7.57;3.77;;;4.10;86.80;;;;;;5043575;28;20203;-71
2023/12/05 04:59:33;;;;;;;8.40;3.63;;;4.10;86.50;;;;;;5039292;28;20220;-72
2023/12/05 05:01:59;;;;;;;8.43;4.00;;;4.10;86.00;;;;;;5045407;28;20639;-71
2023/12/05 05:04:24;;;;;;;9.40;4.10;;;4.20;85.90;;;;;;5040171;28;20239;-72
2023/12/05 05:06:50;;;;;;;10.10;4.20;;;4.10;85.70;;;;;;5043943;28;20181;-71
2023/12/05 05:09:15;;;;;;;8.30;4.27;;;4.00;85.60;;;;;;5039106;28;20579;-72
2023/12/05 05:11:41;;;;;;;6.67;3.40;;;3.90;85.70;;;;;;5045641;28;20690;-71
2023/12/05 05:14:07;;;;;;;7.17;3.70;;;3.80;86.00;;;;;;5041511;28;20180;-70
2023/12/05 05:16:32;;;;;;;6.70;3.10;;;3.70;86.30;;;;;;5042749;28;20283;-72
2023/12/05 05:18:59;;;;;;;7.00;3.57;;;3.90;87.00;;;;;;5042324;28;20192;-72
2023/12/05 05:21:24;;;;;;;5.73;3.47;;;4.20;86.50;;;;;;5040821;28;20216;-70
2023/12/05 05:23:50;;;;;;;3.70;2.40;;;4.30;86.30;;;;;;5043855;28;20427;-71
2023/12/05 05:26:15;;;;;;;3.53;2.60;;;4.50;86.00;;;;;;5046711;28;20180;-71
2023/12/05 05:28:41;;;;;;;5.13;3.20;;;4.70;85.20;;;;;;5048411;28;20196;-72
2023/12/05 05:31:07;;;;;;;6.13;2.80;;;4.80;84.70;;;;;;5043216;28;20749;-71
2023/12/05 05:33:32;;;;;;;5.43;2.50;;;4.90;84.00;;;;;;5033913;28;21132;-72
2023/12/05 05:35:58;;;;;;;5.50;2.87;;;4.90;84.00;;;;;;5043952;28;20185;-72
2023/12/05 05:38:23;;;;;;;4.07;2.80;;;4.90;84.00;;;;;;5039513;28;20222;-72
2023/12/05 05:40:49;;;;;;;4.73;2.63;;;4.90;84.00;;;;;;5038481;28;20236;-72
2023/12/05 05:43:15;;;;;;;6.10;2.70;;;4.80;84.10;;;;;;5038737;28;20561;-73
2023/12/05 05:45:40;;;;;;;5.80;3.10;;;4.80;84.30;;;;;;5040947;28;20649;-71
2023/12/05 05:48:06;;;;;;;4.87;3.00;;;4.80;84.10;;;;;;5037906;28;20641;-71
2023/12/05 05:50:31;;;;;;;5.13;2.87;;;4.80;84.10;;;;;;5042268;28;20650;-73
2023/12/05 05:52:57;;;;;;;7.27;2.90;;;4.70;84.30;;;;;;5041880;28;20675;-72
2023/12/05 05:55:26;;;;;;;6.10;3.13;;;4.70;84.30;;;;;;5040213;28;20184;-71
2023/12/05 05:57:52;;;;;;;6.40;4.30;;;4.60;84.40;;;;;;5040480;28;20181;-71
2023/12/05 06:00:18;;;;;;;8.93;3.40;;;4.50;84.60;;;;;;5041861;28;20482;-74
2023/12/05 06:02:44;;;;;;;4.57;3.33;;;4.50;84.70;;;;;;5040763;28;20795;-71
2023/12/05 06:05:10;;;;;;;6.10;3.70;;;4.40;84.90;;;;;;5041382;28;20188;-72
2023/12/05 06:07:36;;;;;;;6.60;3.07;;;4.40;85.00;;;;;;5041862;28;20411;-70
2023/12/05 06:10:03;;;;;;;5.10;2.80;;;4.50;84.90;;;;;;5043213;28;20246;-72
2023/12/05 06:12:28;;;;;;;6.50;3.10;;;4.50;84.70;;;;;;5048754;28;20467;-72
2023/12/05 06:14:54;;;;;;;7.67;3.57;;;4.50;84.60;;;;;;5041871;28;20412;-72
2023/12/05 06:17:20;;;;;;;6.70;3.20;;;4.50;84.60;;;;;;5047458;28;20672;-73
2023/12/05 06:19:45;;;;;;;3.70;2.60;;;4.40;84.70;;;;;;5038101;28;20211;-72
2023/12/05 06:22:11;;;;;;;6.40;2.83;;;4.40;84.70;;;;;;5047220;28;20220;-73
2023/12/05 06:24:36;;;;;;;4.90;3.37;;;4.40;84.70;;;;;;5037829;28;20185;-72
2023/12/05 06:27:02;;;;;;;7.50;3.30;;;4.40;84.60;;;;;;5046986;28;20339;-72
2023/12/05 06:29:28;;;;;;;7.70;3.50;;;4.40;84.70;;;;;;5038976;28;20597;-73
2023/12/05 06:31:54;;;;;;;6.03;3.00;;;4.40;84.60;;;;;;5047372;28;20432;-71
2023/12/05 06:34:19;;;;;;;8.07;3.40;;;4.40;84.70;;;;;;5035989;28;20642;-72
2023/12/05 06:36:45;;;;;;;5.07;2.93;;;4.40;84.70;;;;;;5041979;28;20231;-73
2023/12/05 06:39:10;;;;;;;19.73;4.03;;;4.40;84.60;;;;;;5038506;28;20175;-72
2023/12/05 06:41:36;;;;;;;3.77;2.70;;;4.40;84.60;;;;;;5040216;28;20217;-73
2023/12/05 06:44:02;;;;;;;4.43;2.60;;;4.50;84.40;;;;;;5044888;28;20213;-75
2023/12/05 06:46:28;;;;;;;8.00;2.97;;;4.50;84.40;;;;;;5046031;28;20187;-75
2023/12/05 06:48:54;;;;;;;7.50;3.37;;;4.50;84.10;;;;;;5039349;28;20825;-76
2023/12/05 06:51:21;;;;;;;9.70;3.60;;;4.50;84.10;;;;;;5044090;28;20521;-74
2023/12/05 06:53:47;;;;;;;9.67;3.10;;;4.50;84.10;;;;;;5046007;28;20305;-76
2023/12/05 06:56:15;;;;;;;4.80;2.83;;;4.50;84.10;;;;;;5045192;28;20965;-76
2023/12/05 06:58:41;;;;;;;4.10;2.53;;;4.40;84.30;;;;;;5042570;28;20427;-77
2023/12/05 07:01:07;;;;;;;4.70;2.77;;;4.40;84.30;;;;;;5042104;28;20512;-75
2023/12/05 07:03:33;;;;;;;6.47;2.87;;;4.40;84.40;;;;;;5042862;28;20474;-76
2023/12/05 07:05:58;;;;;;;7.50;2.83;;;4.40;84.40;;;;;;5046636;28;20452;-75
2023/12/05 07:08:24;;;;;;;9.17;3.00;;;4.40;84.40;;;;;;5042398;28;20279;-72
2023/12/05 07:10:50;;;;;;;5.90;2.80;;;4.40;84.40;;;;;;5046239;28;20722;-72
2023/12/05 07:13:15;;;;;;;5.90;2.50;;;4.40;84.30;;;;;;5042188;28;20641;-71
2023/12/05 07:15:42;;;;;;;12.70;3.20;;;4.40;84.40;;;;;;5037240;28;20554;-71
2023/12/05 07:18:08;;;;;;;17.47;3.17;;;4.40;84.40;;;;;;5040849;28;20188;-73
2023/12/05 07:20:34;;;;;;;7.10;2.50;;;4.50;84.30;;;;;;5038028;28;20476;-71
2023/12/05 07:23:00;;;;;;;10.40;3.20;;;4.50;84.10;;;;;;5039506;28;20439;-72
2023/12/05 07:25:26;;;;;;;16.87;3.50;;;4.60;84.00;;;;;;5041231;28;20193;-71
2023/12/05 07:27:52;;;;;;;3.17;1.63;;;4.60;83.80;;;;;;5045953;28;20200;-72
2023/12/05 07:30:18;;;;;;;4.27;2.23;;;4.80;83.70;;;;;;5042125;28;20579;-72
2023/12/05 07:32:44;;;;;;;5.20;2.30;;;4.80;83.30;;;;;;5045637;28;20481;-72
2023/12/05 07:35:10;;;;;;;3.90;1.60;;;4.90;83.00;;;;;;5040923;28;20420;-72
2023/12/05 07:37:35;;;;;;;4.97;1.83;;;5.00;82.80;;;;;;5043392;28;20219;-71
2023/12/05 07:40:01;;;;;;;3.97;1.90;;;5.00;82.50;;;;;;5043023;28;20473;-74
2023/12/05 07:42:27;;;;;;;3.80;2.50;;;5.10;82.20;;;;;;5047210;28;20384;-72
2023/12/05 07:44:52;;;;;;;3.43;2.20;;;5.10;81.90;;;;;;5043651;28;20177;-72
2023/12/05 07:47:18;;;;;;;6.20;2.10;;;5.20;81.80;;;;;;5045802;28;20181;-72
2023/12/05 07:49:47;;;;;;;13.77;2.37;;;5.20;81.50;;;;;;5042296;28;20208;-71
2023/12/05 07:52:12;;;;;;;5.27;2.53;;;5.20;81.50;;;;;;5043723;28;20671;-72
2023/12/05 07:54:38;;;;;;;5.00;2.90;;;5.10;81.50;;;;;;5050647;28;20407;-74
2023/12/05 07:57:04;;;;;;;8.13;2.90;;;5.20;81.70;;;;;;5043492;28;20668;-72
2023/12/05 07:59:29;;;;;;;10.60;4.27;;;5.10;81.70;;;;;;5037840;28;20208;-71
2023/12/05 08:01:55;;;;;;;4.53;2.90;;;5.00;81.90;;;;;;5044930;28;20224;-73
2023/12/05 08:04:21;;;;;;;10.63;5.77;;;4.90;82.20;;;;;;5041873;28;20267;-72
2023/12/05 08:06:48;;;;;;;8.70;2.70;;;4.80;82.70;;;;;;5043869;28;20666;-73
2023/12/05 08:09:13;;;;;;;4.80;2.50;;;4.80;83.00;;;;;;5043905;28;20447;-72
2023/12/05 08:11:42;;;;;;;4.40;2.67;;;4.80;83.10;;;;;;5041279;28;20447;-73
2023/12/05 08:14:08;;;;;;;5.70;1.80;;;4.80;82.80;;;;;;5044540;28;20770;-73
2023/12/05 08:16:34;;;;;;;3.20;2.10;;;4.90;82.50;;;;;;5042323;28;20478;-72
2023/12/05 08:18:59;;;;;;;4.97;2.20;;;5.00;82.20;;;;;;5049950;28;20186;-72
2023/12/05 08:21:25;;;;;;;2.93;1.93;;;5.10;81.80;;;;;;5047406;28;20217;-73
2023/12/05 08:23:51;;;;;;;9.80;2.60;;;5.20;81.40;;;;;;5042710;28;20432;-74
2023/12/05 08:26:16;;;;;;;5.30;2.00;;;5.30;80.90;;;;;;5043082;28;20725;-72
2023/12/05 08:28:42;;;;;;;2.27;1.77;;;5.30;81.10;;;;;;5048832;28;20446;-73
2023/12/05 08:31:09;;;;;;;4.20;1.77;;;5.40;80.80;;;;;;5049108;28;20200;-74
2023/12/05 08:33:38;;;;;;;7.67;2.13;;;5.40;80.20;;;;;;5063306;28;20188;-71
2023/12/05 08:36:04;;;;;;;7.43;2.53;;;5.50;79.90;;;;;;5044191;28;20439;-72
2023/12/05 08:38:32;;;;;;;2.93;1.60;;;5.50;79.90;;;;;;5056127;28;20461;-72
2023/12/05 08:40:58;;;;;;;4.50;2.30;;;5.60;79.60;;;;;;5049170;28;20479;-72
2023/12/05 08:43:26;;;;;;;6.50;1.93;;;5.60;79.50;;;;;;5050806;28;20419;-72
2023/12/05 08:45:53;;;;;;;4.30;1.80;;;5.70;79.20;;;;;;5056658;28;20507;-72
2023/12/05 08:48:19;;;;;;;3.30;1.70;;;5.70;79.00;;;;;;5047293;28;20435;-73
2023/12/05 08:50:44;;;;;;;6.07;1.63;;;5.70;79.00;;;;;;5038550;28;20815;-73
2023/12/05 08:53:10;;;;;;;3.30;1.90;;;5.80;78.60;;;;;;5060258;28;20181;-72
2023/12/05 08:55:36;;;;;;;1.90;1.57;;;5.80;78.30;;;;;;5039889;28;20188;-72
2023/12/05 08:58:02;;;;;;;16.07;2.60;;;5.90;78.10;;;;;;5042631;28;20485;-71
2023/12/05 09:00:27;;;;;;;7.73;1.70;;;5.90;78.00;;;;;;5043516;28;20572;-71
2023/12/05 09:02:55;;;;;;;4.33;1.80;;;5.90;77.80;;;;;;5047447;28;20432;-72
2023/12/05 09:05:20;;;;;;;3.77;1.97;;;5.90;77.70;;;;;;5044221;28;20180;-73
2023/12/05 09:07:47;;;;;;;5.37;2.00;;;6.00;77.60;;;;;;5040281;28;20432;-72
2023/12/05 09:10:13;;;;;;;2.73;1.70;;;5.90;77.60;;;;;;5042609;28;20243;-72
2023/12/05 09:12:38;;;;;;;5.67;1.60;;;6.00;77.40;;;;;;5041471;28;20474;-72
2023/12/05 09:15:04;;;;;;;4.10;2.00;;;6.00;77.60;;;;;;5045733;28;20196;-73
2023/12/05 09:17:31;;;;;;;6.70;1.93;;;6.00;77.40;;;;;;5041985;28;20200;-72
2023/12/05 09:19:57;;;;;;;2.73;1.60;;;6.00;77.30;;;;;;5047930;28;20227;-74
2023/12/05 09:22:23;;;;;;;3.30;1.67;;;6.10;77.10;;;;;;5043873;28;20419;-74
2023/12/05 09:24:48;;;;;;;5.30;2.00;;;6.10;77.00;;;;;;5047220;28;20231;-73
2023/12/05 09:27:14;;;;;;;6.07;1.80;;;6.10;77.10;;;;;;5046506;28;20189;-72
2023/12/05 09:29:39;;;;;;;5.00;2.07;;;6.20;77.10;;;;;;5043268;28;20327;-72
2023/12/05 09:32:05;;;;;;;5.70;1.80;;;6.20;77.10;;;;;;5044474;28;20291;-72
2023/12/05 09:34:31;;;;;;;3.20;1.70;;;6.20;77.00;;;;;;5043528;28;20687;-72
2023/12/05 09:36:56;;;;;;;5.50;2.10;;;6.30;76.80;;;;;;5042533;28;20200;-71
2023/12/05 09:39:22;;;;;;;4.90;1.80;;;6.30;76.70;;;;;;5041447;28;20220;-72
2023/12/05 09:41:52;;;;;;;5.43;1.77;;;6.40;76.40;;;;;;5039264;28;20227;-72
2023/12/05 09:44:23;;;;;;;3.10;1.47;;;6.40;76.10;;;;;;5045541;28;20216;-72
2023/12/05 09:46:57;;;;;;;3.70;1.87;;;6.50;75.90;;;;;;5029849;28;20440;-73
2023/12/05 09:49:27;;;;;;;1.80;1.17;;;6.50;75.80;;;;;;5041775;28;20498;-72
2023/12/05 09:51:57;;;;;;;2.33;1.57;;;6.50;75.70;;;;;;5040261;28;20494;-73
2023/12/05 09:54:26;;;;;;;3.50;1.80;;;6.60;75.70;;;;;;5048857;28;20518;-73
2023/12/05 09:56:56;;;;;;;3.20;1.40;;;6.50;75.70;;;;;;5053404;28;20514;-73
2023/12/05 09:59:22;;;;;;;3.20;1.50;;;6.60;75.50;;;;;;5043677;28;20523;-72
2023/12/05 10:01:48;;;;;;;3.27;1.50;;;6.60;75.50;;;;;;5053898;28;20557;-73
2023/12/05 10:04:18;;;;;;;4.33;1.37;;;6.60;75.50;;;;;;5041778;28;20510;-73
2023/12/05 10:06:46;;;;;;;16.23;1.73;;;6.60;75.40;;;;;;5040194;28;20234;-74
2023/12/05 10:09:17;;;;;;;2.93;1.87;;;6.70;75.40;;;;;;5038330;28;20821;-72
2023/12/05 10:11:44;;;;;;;3.83;1.67;;;6.70;75.10;;;;;;5045389;28;20442;-73
2023/12/05 10:14:10;;;;;;;3.30;1.57;;;6.70;75.20;;;;;;5044048;28;20840;-73
2023/12/05 10:16:37;;;;;;;2.10;1.37;;;6.70;75.20;;;;;;5044519;28;20411;-73
2023/12/05 10:19:04;;;;;;;2.60;1.33;;;6.70;75.40;;;;;;5038004;28;20188;-73
2023/12/05 10:21:29;;;;;;;2.20;1.50;;;6.80;75.40;;;;;;5041708;28;20571;-72
2023/12/05 10:23:55;;;;;;;6.50;1.80;;;6.90;75.20;;;;;;5039450;28;21006;-72
2023/12/05 10:26:20;;;;;;;3.00;1.30;;;7.00;74.60;;;;;;5044395;28;20272;-73
2023/12/05 10:28:51;;;;;;;4.40;1.83;;;7.10;74.20;;;;;;5038353;28;20779;-73
2023/12/05 10:31:17;;;;;;;4.70;1.60;;;7.20;74.20;;;;;;5042778;28;20193;-74
2023/12/05 10:33:43;;;;;;;2.63;1.57;;;7.20;73.70;;;;;;5042070;28;20759;-72
2023/12/05 10:36:12;;;;;;;4.37;1.53;;;7.40;73.50;;;;;;5047379;28;20453;-74
2023/12/05 10:38:37;;;;;;;5.13;1.93;;;7.40;73.00;;;;;;5047680;28;20195;-74
2023/12/05 10:41:03;;;;;;;2.60;1.60;;;7.40;73.20;;;;;;5042761;28;20470;-74
2023/12/05 10:43:29;;;;;;;3.60;1.87;;;7.40;73.20;;;;;;5042413;28;20479;-72
2023/12/05 10:45:55;;;;;;;1.50;1.30;;;7.50;73.00;;;;;;5042196;28;20800;-73
2023/12/05 10:48:24;;;;;;;3.03;1.47;;;7.60;72.40;;;;;;5037474;28;20188;-73
2023/12/05 10:50:53;;;;;;;1.77;1.30;;;7.70;72.10;;;;;;5036040;28;20467;-73
2023/12/05 10:53:19;;;;;;;3.07;1.60;;;7.80;71.80;;;;;;5041567;28;20474;-72
2023/12/05 10:55:45;;;;;;;3.50;1.47;;;7.70;71.80;;;;;;5038595;28;20470;-72
2023/12/05 10:58:11;;;;;;;3.83;1.60;;;7.60;72.10;;;;;;5043991;28;20496;-74
2023/12/05 11:00:38;;;;;;;2.33;1.60;;;7.50;72.60;;;;;;5038412;28;20479;-72
2023/12/05 11:03:04;;;;;;;7.30;2.63;;;7.50;72.90;;;;;;5044131;28;20435;-72
2023/12/05 11:05:31;;;;;;;2.63;1.50;;;7.40;73.00;;;;;;5039695;28;20419;-72
2023/12/05 11:07:57;;;;;;;2.23;1.43;;;7.40;72.90;;;;;;5046925;28;20450;-74
2023/12/05 11:10:26;;;;;;;2.20;1.33;;;7.40;73.20;;;;;;5038532;28;20467;-74
2023/12/05 11:12:53;;;;;;;4.50;1.70;;;7.30;73.30;;;;;;5041291;28;20477;-73
2023/12/05 11:15:39;;;;;;;1.97;1.30;;;7.40;73.30;;;;;;5034104;28;20551;-72
2023/12/05 11:18:18;;;;;;;2.97;1.40;;;7.30;73.20;;;;;;5043550;28;20418;-73
2023/12/05 11:20:55;;;;;;;3.20;1.50;;;7.30;73.20;;;;;;5036401;28;21171;-73
2023/12/05 11:23:27;;;;;;;2.30;1.23;;;7.40;73.50;;;;;;5038869;28;20429;-74
2023/12/05 11:26:34;;;;;;;3.67;1.53;;;7.30;73.20;;;;;;5037851;28;20422;-74
2023/12/05 11:29:05;;;;;;;3.20;1.27;;;7.30;73.50;;;;;;5039669;28;20431;-72
2023/12/05 11:32:01;;;;;;;2.90;1.10;;;7.30;73.50;;;;;;5042349;28;20443;-72
2023/12/05 11:35:00;;;;;;;1.83;1.10;;;7.30;73.70;;;;;;5035904;28;20424;-75
2023/12/05 11:38:05;;;;;;;2.30;1.20;;;7.30;73.50;;;;;;5040589;28;20908;-74
2023/12/05 11:40:30;;;;;;;3.20;1.53;;;7.30;73.70;;;;;;5044038;28;20553;-74
2023/12/05 11:43:14;;;;;;;3.53;1.33;;;7.30;73.50;;;;;;5041422;28;20474;-74
2023/12/05 11:45:41;;;;;;;4.77;1.10;;;7.30;73.60;;;;;;5042285;28;20191;-71
2023/12/05 11:48:13;;;;;;;3.07;1.60;;;7.30;73.50;;;;;;5035114;28;20434;-73
2023/12/05 11:50:48;;;;;;;2.40;1.13;;;7.40;73.50;;;;;;5037835;28;20473;-73
2023/12/05 11:53:20;;;;;;;2.03;1.27;;;7.40;73.30;;;;;;5043742;28;20984;-73
2023/12/05 11:55:49;;;;;;;2.77;1.43;;;7.40;73.30;;;;;;5042322;28;20934;-73
2023/12/05 11:58:31;;;;;;;3.50;1.40;;;7.40;73.20;;;;;;5044731;28;20408;-74
2023/12/05 12:01:09;;;;;;;2.80;1.23;;;7.40;73.30;;;;;;5041422;28;20502;-72
2023/12/05 12:03:50;;;;;;;4.23;1.43;;;7.40;73.30;;;;;;5057270;28;20457;-73
2023/12/05 12:06:18;;;;;;;4.20;1.60;;;7.40;73.70;;;;;;5041920;28;20446;-74
2023/12/05 12:08:45;;;;;;;4.13;1.40;;;7.40;73.50;;;;;;5049351;28;20500;-73
2023/12/05 12:11:11;;;;;;;9.40;1.50;;;7.50;73.50;;;;;;5046054;28;20478;-74
2023/12/05 12:13:37;;;;;;;5.60;1.60;;;7.50;73.30;;;;;;5044078;28;20427;-73
2023/12/05 12:16:03;;;;;;;2.63;1.50;;;7.50;73.20;;;;;;5037874;28;20419;-73
2023/12/05 12:18:30;;;;;;;2.00;1.37;;;7.50;72.70;;;;;;5045280;28;20180;-74
2023/12/05 12:20:56;;;;;;;5.90;1.70;;;7.50;73.00;;;;;;5040157;28;21012;-72
2023/12/05 12:23:22;;;;;;;4.43;1.40;;;7.60;72.90;;;;;;5048347;28;20522;-74
2023/12/05 12:25:53;;;;;;;4.10;1.80;;;7.60;72.70;;;;;;5047173;28;20462;-72
2023/12/05 12:28:26;;;;;;;11.10;2.30;;;7.60;73.00;;;;;;5052584;28;20188;-73
2023/12/05 12:30:52;;;;;;;5.07;1.70;;;7.70;73.00;;;;;;5045849;28;20461;-73
2023/12/05 12:33:19;;;;;;;2.50;1.40;;;7.70;72.70;;;;;;5050461;28;20434;-72
2023/12/05 12:35:46;;;;;;;3.73;1.47;;;7.80;72.40;;;;;;5042361;28;20515;-73
2023/12/05 12:38:14;;;;;;;4.23;1.97;;;7.90;72.40;;;;;;5049117;28;20309;-74
2023/12/05 12:40:41;;;;;;;6.53;1.43;;;8.00;71.80;;;;;;5043304;28;20562;-73
2023/12/05 12:43:08;;;;;;;4.60;1.57;;;8.00;71.40;;;;;;5048258;28;20446;-72
2023/12/05 12:45:34;;;;;;;3.50;1.60;;;8.10;71.60;;;;;;5042207;28;20912;-74
2023/12/05 12:48:03;;;;;;;4.43;1.60;;;8.20;71.40;;;;;;5043420;28;20516;-74
2023/12/05 12:50:30;;;;;;;2.70;1.97;;;8.30;70.80;;;;;;5039347;28;20943;-74
2023/12/05 12:52:56;;;;;;;4.10;1.33;;;8.30;70.80;;;;;;5044315;28;20427;-73
2023/12/05 12:55:22;;;;;;;2.70;1.30;;;8.30;70.70;;;;;;5048877;28;20439;-73